sensor_id;sensor_type;location;lat;lon;timestamp;P1;durP1;ratioP1;P2;durP2;ratioP2
7583;SDS011;3833;41.764;26.204;2022-12-29T00:00:09;6.53;;;5.37;;
7583;SDS011;3833;41.764;26.204;2022-12-29T00:02:37;7.83;;;7.20;;
7583;SDS011;3833;41.764;26.204;2022-12-29T00:05:04;7.60;;;6.20;;
7583;SDS011;3833;41.764;26.204;2022-12-29T00:07:32;10.13;;;8.57;;
7583;SDS011;3833;41.764;26.204;2022-12-29T00:10:00;6.70;;;5.30;;
7583;SDS011;3833;41.764;26.204;2022-12-29T00:12:27;6.10;;;5.07;;
7583;SDS011;3833;41.764;26.204;2022-12-29T00:15:14;7.17;;;6.50;;
7583;SDS011;3833;41.764;26.204;2022-12-29T00:17:59;8.57;;;7.27;;
7583;SDS011;3833;41.764;26.204;2022-12-29T00:20:26;8.40;;;7.50;;
7583;SDS011;3833;41.764;26.204;2022-12-29T00:23:10;8.50;;;7.70;;
7583;SDS011;3833;41.764;26.204;2022-12-29T00:25:55;8.83;;;7.23;;
7583;SDS011;3833;41.764;26.204;2022-12-29T00:28:36;10.50;;;7.07;;
7583;SDS011;3833;41.764;26.204;2022-12-29T00:31:20;12.27;;;7.07;;
7583;SDS011;3833;41.764;26.204;2022-12-29T00:34:08;8.93;;;6.70;;
7583;SDS011;3833;41.764;26.204;2022-12-29T00:36:54;7.83;;;5.87;;
7583;SDS011;3833;41.764;26.204;2022-12-29T00:39:21;4.87;;;4.17;;
7583;SDS011;3833;41.764;26.204;2022-12-29T00:42:07;5.37;;;4.63;;
7583;SDS011;3833;41.764;26.204;2022-12-29T00:44:57;8.30;;;7.60;;
7583;SDS011;3833;41.764;26.204;2022-12-29T00:47:24;8.97;;;6.27;;
7583;SDS011;3833;41.764;26.204;2022-12-29T00:49:51;9.23;;;8.33;;
7583;SDS011;3833;41.764;26.204;2022-12-29T00:52:17;8.57;;;5.23;;
7583;SDS011;3833;41.764;26.204;2022-12-29T00:54:44;6.10;;;5.50;;
7583;SDS011;3833;41.764;26.204;2022-12-29T00:57:12;7.13;;;6.20;;
7583;SDS011;3833;41.764;26.204;2022-12-29T00:59:39;8.47;;;7.60;;
7583;SDS011;3833;41.764;26.204;2022-12-29T01:02:07;9.90;;;7.70;;
7583;SDS011;3833;41.764;26.204;2022-12-29T01:04:35;6.10;;;5.03;;
7583;SDS011;3833;41.764;26.204;2022-12-29T01:07:02;5.13;;;4.63;;
7583;SDS011;3833;41.764;26.204;2022-12-29T01:09:30;7.50;;;6.83;;
7583;SDS011;3833;41.764;26.204;2022-12-29T01:12:16;8.23;;;7.10;;
7583;SDS011;3833;41.764;26.204;2022-12-29T01:15:03;7.97;;;7.30;;
7583;SDS011;3833;41.764;26.204;2022-12-29T01:17:30;5.00;;;4.10;;
7583;SDS011;3833;41.764;26.204;2022-12-29T01:19:57;11.80;;;10.70;;
7583;SDS011;3833;41.764;26.204;2022-12-29T01:22:24;6.07;;;4.20;;
7583;SDS011;3833;41.764;26.204;2022-12-29T01:24:51;9.77;;;6.17;;
7583;SDS011;3833;41.764;26.204;2022-12-29T01:27:19;8.23;;;7.10;;
7583;SDS011;3833;41.764;26.204;2022-12-29T01:29:46;4.80;;;4.40;;
7583;SDS011;3833;41.764;26.204;2022-12-29T01:32:12;11.63;;;9.77;;
7583;SDS011;3833;41.764;26.204;2022-12-29T01:34:39;9.90;;;5.43;;
7583;SDS011;3833;41.764;26.204;2022-12-29T01:37:06;5.90;;;5.33;;
7583;SDS011;3833;41.764;26.204;2022-12-29T01:39:33;7.53;;;6.90;;
7583;SDS011;3833;41.764;26.204;2022-12-29T01:42:00;7.03;;;6.40;;
7583;SDS011;3833;41.764;26.204;2022-12-29T01:47:25;7.67;;;6.97;;
7583;SDS011;3833;41.764;26.204;2022-12-29T01:49:56;8.50;;;7.60;;
7583;SDS011;3833;41.764;26.204;2022-12-29T01:52:28;6.53;;;4.33;;
7583;SDS011;3833;41.764;26.204;2022-12-29T01:54:58;7.37;;;6.70;;
7583;SDS011;3833;41.764;26.204;2022-12-29T01:57:37;7.50;;;6.43;;
7583;SDS011;3833;41.764;26.204;2022-12-29T02:00:09;8.03;;;7.33;;
7583;SDS011;3833;41.764;26.204;2022-12-29T02:02:37;8.83;;;3.87;;
7583;SDS011;3833;41.764;26.204;2022-12-29T02:05:07;8.03;;;7.27;;
7583;SDS011;3833;41.764;26.204;2022-12-29T02:07:37;7.03;;;6.10;;
7583;SDS011;3833;41.764;26.204;2022-12-29T02:10:05;5.07;;;4.63;;
7583;SDS011;3833;41.764;26.204;2022-12-29T02:12:33;10.70;;;6.43;;
7583;SDS011;3833;41.764;26.204;2022-12-29T02:15:00;6.07;;;5.47;;
7583;SDS011;3833;41.764;26.204;2022-12-29T02:17:38;7.30;;;6.43;;
7583;SDS011;3833;41.764;26.204;2022-12-29T02:20:26;5.83;;;5.10;;
7583;SDS011;3833;41.764;26.204;2022-12-29T02:23:19;8.50;;;6.70;;
7583;SDS011;3833;41.764;26.204;2022-12-29T02:26:02;7.70;;;6.90;;
7583;SDS011;3833;41.764;26.204;2022-12-29T02:29:06;8.07;;;6.53;;
7583;SDS011;3833;41.764;26.204;2022-12-29T02:31:56;6.43;;;5.73;;
7583;SDS011;3833;41.764;26.204;2022-12-29T02:34:30;7.83;;;4.67;;
7583;SDS011;3833;41.764;26.204;2022-12-29T02:37:05;6.27;;;5.67;;
7583;SDS011;3833;41.764;26.204;2022-12-29T02:39:40;6.47;;;5.87;;
7583;SDS011;3833;41.764;26.204;2022-12-29T02:42:11;7.37;;;3.30;;
7583;SDS011;3833;41.764;26.204;2022-12-29T02:44:48;6.70;;;6.07;;
7583;SDS011;3833;41.764;26.204;2022-12-29T02:47:23;9.13;;;8.43;;
7583;SDS011;3833;41.764;26.204;2022-12-29T02:49:57;6.73;;;6.20;;
7583;SDS011;3833;41.764;26.204;2022-12-29T02:52:30;6.60;;;4.60;;
7583;SDS011;3833;41.764;26.204;2022-12-29T02:55:01;6.60;;;6.00;;
7583;SDS011;3833;41.764;26.204;2022-12-29T02:57:31;7.03;;;6.33;;
7583;SDS011;3833;41.764;26.204;2022-12-29T03:00:00;5.27;;;3.90;;
7583;SDS011;3833;41.764;26.204;2022-12-29T03:02:35;7.30;;;6.60;;
7583;SDS011;3833;41.764;26.204;2022-12-29T03:05:15;7.37;;;6.77;;
7583;SDS011;3833;41.764;26.204;2022-12-29T03:07:50;10.23;;;9.37;;
7583;SDS011;3833;41.764;26.204;2022-12-29T03:10:27;7.17;;;6.47;;
7583;SDS011;3833;41.764;26.204;2022-12-29T03:13:17;9.63;;;8.00;;
7583;SDS011;3833;41.764;26.204;2022-12-29T03:16:11;7.40;;;6.77;;
7583;SDS011;3833;41.764;26.204;2022-12-29T03:18:49;10.50;;;9.57;;
7583;SDS011;3833;41.764;26.204;2022-12-29T03:21:24;7.70;;;7.00;;
7583;SDS011;3833;41.764;26.204;2022-12-29T03:24:15;9.77;;;9.00;;
7583;SDS011;3833;41.764;26.204;2022-12-29T03:26:45;9.03;;;6.30;;
7583;SDS011;3833;41.764;26.204;2022-12-29T03:29:14;6.50;;;5.93;;
7583;SDS011;3833;41.764;26.204;2022-12-29T03:31:43;7.00;;;6.30;;
7583;SDS011;3833;41.764;26.204;2022-12-29T03:34:14;6.77;;;6.13;;
7583;SDS011;3833;41.764;26.204;2022-12-29T03:36:44;8.13;;;5.93;;
7583;SDS011;3833;41.764;26.204;2022-12-29T03:39:14;10.33;;;9.53;;
7583;SDS011;3833;41.764;26.204;2022-12-29T03:41:41;7.90;;;4.13;;
7583;SDS011;3833;41.764;26.204;2022-12-29T03:44:11;7.43;;;6.60;;
7583;SDS011;3833;41.764;26.204;2022-12-29T03:46:39;8.33;;;6.20;;
7583;SDS011;3833;41.764;26.204;2022-12-29T03:49:05;4.97;;;3.47;;
7583;SDS011;3833;41.764;26.204;2022-12-29T03:51:34;9.83;;;9.07;;
7583;SDS011;3833;41.764;26.204;2022-12-29T03:54:01;5.77;;;4.50;;
7583;SDS011;3833;41.764;26.204;2022-12-29T03:56:28;7.23;;;6.50;;
7583;SDS011;3833;41.764;26.204;2022-12-29T03:58:55;7.17;;;6.53;;
7583;SDS011;3833;41.764;26.204;2022-12-29T04:01:21;5.73;;;3.27;;
7583;SDS011;3833;41.764;26.204;2022-12-29T04:03:48;10.03;;;9.13;;
7583;SDS011;3833;41.764;26.204;2022-12-29T04:06:15;5.77;;;3.87;;
7583;SDS011;3833;41.764;26.204;2022-12-29T04:08:43;6.10;;;5.30;;
7583;SDS011;3833;41.764;26.204;2022-12-29T04:11:10;7.07;;;6.47;;
7583;SDS011;3833;41.764;26.204;2022-12-29T04:13:37;6.80;;;4.80;;
7583;SDS011;3833;41.764;26.204;2022-12-29T04:16:06;10.27;;;9.33;;
7583;SDS011;3833;41.764;26.204;2022-12-29T04:18:33;8.50;;;3.90;;
7583;SDS011;3833;41.764;26.204;2022-12-29T04:20:59;9.13;;;5.57;;
7583;SDS011;3833;41.764;26.204;2022-12-29T04:23:25;7.60;;;6.00;;
7583;SDS011;3833;41.764;26.204;2022-12-29T04:25:54;5.87;;;4.93;;
7583;SDS011;3833;41.764;26.204;2022-12-29T04:28:21;9.33;;;8.43;;
7583;SDS011;3833;41.764;26.204;2022-12-29T04:30:48;4.73;;;4.33;;
7583;SDS011;3833;41.764;26.204;2022-12-29T04:33:15;6.40;;;4.63;;
7583;SDS011;3833;41.764;26.204;2022-12-29T04:35:42;7.10;;;6.47;;
7583;SDS011;3833;41.764;26.204;2022-12-29T04:38:09;6.70;;;5.30;;
7583;SDS011;3833;41.764;26.204;2022-12-29T04:40:37;8.03;;;7.23;;
7583;SDS011;3833;41.764;26.204;2022-12-29T04:43:06;6.07;;;4.90;;
7583;SDS011;3833;41.764;26.204;2022-12-29T04:45:33;5.27;;;4.73;;
7583;SDS011;3833;41.764;26.204;2022-12-29T04:47:59;8.37;;;6.30;;
7583;SDS011;3833;41.764;26.204;2022-12-29T04:50:26;6.57;;;5.23;;
7583;SDS011;3833;41.764;26.204;2022-12-29T04:52:53;8.13;;;7.27;;
7583;SDS011;3833;41.764;26.204;2022-12-29T04:55:20;4.90;;;4.50;;
7583;SDS011;3833;41.764;26.204;2022-12-29T04:57:47;5.30;;;4.87;;
7583;SDS011;3833;41.764;26.204;2022-12-29T05:00:16;6.40;;;5.80;;
7583;SDS011;3833;41.764;26.204;2022-12-29T05:02:43;7.07;;;6.40;;
7583;SDS011;3833;41.764;26.204;2022-12-29T05:05:09;9.37;;;6.73;;
7583;SDS011;3833;41.764;26.204;2022-12-29T05:07:36;5.40;;;4.63;;
7583;SDS011;3833;41.764;26.204;2022-12-29T05:10:04;8.63;;;5.63;;
7583;SDS011;3833;41.764;26.204;2022-12-29T05:12:31;6.47;;;5.90;;
7583;SDS011;3833;41.764;26.204;2022-12-29T05:14:58;8.97;;;6.90;;
7583;SDS011;3833;41.764;26.204;2022-12-29T05:17:28;7.93;;;7.13;;
7583;SDS011;3833;41.764;26.204;2022-12-29T05:19:55;10.90;;;5.43;;
7583;SDS011;3833;41.764;26.204;2022-12-29T05:22:22;7.40;;;5.80;;
7583;SDS011;3833;41.764;26.204;2022-12-29T05:24:49;8.77;;;7.37;;
7583;SDS011;3833;41.764;26.204;2022-12-29T05:27:16;8.53;;;7.07;;
7583;SDS011;3833;41.764;26.204;2022-12-29T05:29:43;8.93;;;7.50;;
7583;SDS011;3833;41.764;26.204;2022-12-29T05:32:10;8.17;;;6.73;;
7583;SDS011;3833;41.764;26.204;2022-12-29T05:34:38;9.23;;;8.30;;
7583;SDS011;3833;41.764;26.204;2022-12-29T05:37:05;13.53;;;7.10;;
7583;SDS011;3833;41.764;26.204;2022-12-29T05:39:32;9.07;;;8.30;;
7583;SDS011;3833;41.764;26.204;2022-12-29T05:41:58;11.23;;;9.00;;
7583;SDS011;3833;41.764;26.204;2022-12-29T05:44:25;8.93;;;7.87;;
7583;SDS011;3833;41.764;26.204;2022-12-29T05:46:52;9.03;;;8.13;;
7583;SDS011;3833;41.764;26.204;2022-12-29T05:49:19;7.67;;;6.77;;
7583;SDS011;3833;41.764;26.204;2022-12-29T05:51:47;9.93;;;8.97;;
7583;SDS011;3833;41.764;26.204;2022-12-29T05:54:14;9.10;;;8.23;;
7583;SDS011;3833;41.764;26.204;2022-12-29T05:56:41;9.93;;;8.53;;
7583;SDS011;3833;41.764;26.204;2022-12-29T05:59:08;9.57;;;8.63;;
7583;SDS011;3833;41.764;26.204;2022-12-29T06:01:35;7.53;;;6.77;;
7583;SDS011;3833;41.764;26.204;2022-12-29T06:04:02;11.23;;;10.23;;
7583;SDS011;3833;41.764;26.204;2022-12-29T06:06:28;10.63;;;8.33;;
7583;SDS011;3833;41.764;26.204;2022-12-29T06:08:57;10.40;;;9.43;;
7583;SDS011;3833;41.764;26.204;2022-12-29T06:11:24;10.53;;;9.03;;
7583;SDS011;3833;41.764;26.204;2022-12-29T06:13:50;10.93;;;7.53;;
7583;SDS011;3833;41.764;26.204;2022-12-29T06:16:17;12.20;;;11.10;;
7583;SDS011;3833;41.764;26.204;2022-12-29T06:18:44;8.97;;;8.13;;
7583;SDS011;3833;41.764;26.204;2022-12-29T06:21:11;12.17;;;9.07;;
7583;SDS011;3833;41.764;26.204;2022-12-29T06:23:38;9.87;;;8.87;;
7583;SDS011;3833;41.764;26.204;2022-12-29T06:26:06;10.13;;;7.57;;
7583;SDS011;3833;41.764;26.204;2022-12-29T06:28:34;13.00;;;11.67;;
7583;SDS011;3833;41.764;26.204;2022-12-29T06:31:00;9.00;;;7.77;;
7583;SDS011;3833;41.764;26.204;2022-12-29T06:33:28;9.80;;;8.30;;
7583;SDS011;3833;41.764;26.204;2022-12-29T06:35:56;10.77;;;9.77;;
7583;SDS011;3833;41.764;26.204;2022-12-29T06:38:23;8.93;;;7.37;;
7583;SDS011;3833;41.764;26.204;2022-12-29T06:40:50;11.90;;;10.73;;
7583;SDS011;3833;41.764;26.204;2022-12-29T06:43:18;11.73;;;8.73;;
7583;SDS011;3833;41.764;26.204;2022-12-29T06:45:45;12.37;;;9.67;;
7583;SDS011;3833;41.764;26.204;2022-12-29T06:48:12;12.10;;;10.90;;
7583;SDS011;3833;41.764;26.204;2022-12-29T06:50:39;8.97;;;7.87;;
7583;SDS011;3833;41.764;26.204;2022-12-29T06:53:06;12.90;;;11.60;;
7583;SDS011;3833;41.764;26.204;2022-12-29T06:55:32;11.30;;;8.63;;
7583;SDS011;3833;41.764;26.204;2022-12-29T06:57:59;9.77;;;8.87;;
7583;SDS011;3833;41.764;26.204;2022-12-29T07:00:28;11.30;;;10.03;;
7583;SDS011;3833;41.764;26.204;2022-12-29T07:02:55;11.73;;;8.40;;
7583;SDS011;3833;41.764;26.204;2022-12-29T07:05:23;11.27;;;10.17;;
7583;SDS011;3833;41.764;26.204;2022-12-29T07:07:52;8.30;;;7.50;;
7583;SDS011;3833;41.764;26.204;2022-12-29T07:10:19;9.50;;;8.53;;
7583;SDS011;3833;41.764;26.204;2022-12-29T07:12:46;10.70;;;9.27;;
7583;SDS011;3833;41.764;26.204;2022-12-29T07:15:13;8.27;;;7.43;;
7583;SDS011;3833;41.764;26.204;2022-12-29T07:17:41;11.17;;;10.07;;
7583;SDS011;3833;41.764;26.204;2022-12-29T07:20:09;8.13;;;7.33;;
7583;SDS011;3833;41.764;26.204;2022-12-29T07:22:36;9.13;;;8.10;;
7583;SDS011;3833;41.764;26.204;2022-12-29T07:25:04;11.03;;;9.83;;
7583;SDS011;3833;41.764;26.204;2022-12-29T07:27:31;7.93;;;7.07;;
7583;SDS011;3833;41.764;26.204;2022-12-29T07:29:58;13.33;;;12.13;;
7583;SDS011;3833;41.764;26.204;2022-12-29T07:32:24;9.33;;;7.80;;
7583;SDS011;3833;41.764;26.204;2022-12-29T07:34:53;10.33;;;9.30;;
7583;SDS011;3833;41.764;26.204;2022-12-29T07:37:20;11.17;;;10.10;;
7583;SDS011;3833;41.764;26.204;2022-12-29T07:39:47;8.70;;;8.00;;
7583;SDS011;3833;41.764;26.204;2022-12-29T07:42:13;13.23;;;12.07;;
7583;SDS011;3833;41.764;26.204;2022-12-29T07:44:40;8.53;;;7.80;;
7583;SDS011;3833;41.764;26.204;2022-12-29T07:47:07;11.90;;;10.20;;
7583;SDS011;3833;41.764;26.204;2022-12-29T07:49:34;23.07;;;20.57;;
7583;SDS011;3833;41.764;26.204;2022-12-29T07:52:02;22.87;;;20.13;;
7583;SDS011;3833;41.764;26.204;2022-12-29T07:54:29;25.10;;;22.43;;
7583;SDS011;3833;41.764;26.204;2022-12-29T07:56:56;14.63;;;13.13;;
7583;SDS011;3833;41.764;26.204;2022-12-29T07:59:25;12.03;;;10.70;;
7583;SDS011;3833;41.764;26.204;2022-12-29T08:01:52;17.43;;;15.63;;
7583;SDS011;3833;41.764;26.204;2022-12-29T08:04:18;18.53;;;16.53;;
7583;SDS011;3833;41.764;26.204;2022-12-29T08:06:45;18.77;;;16.77;;
7583;SDS011;3833;41.764;26.204;2022-12-29T08:09:14;13.60;;;12.10;;
7583;SDS011;3833;41.764;26.204;2022-12-29T08:11:41;20.73;;;14.87;;
7583;SDS011;3833;41.764;26.204;2022-12-29T08:14:09;24.47;;;17.80;;
7583;SDS011;3833;41.764;26.204;2022-12-29T08:16:36;18.73;;;16.67;;
7583;SDS011;3833;41.764;26.204;2022-12-29T08:19:03;23.23;;;21.30;;
7583;SDS011;3833;41.764;26.204;2022-12-29T08:21:30;20.00;;;18.10;;
7583;SDS011;3833;41.764;26.204;2022-12-29T08:23:57;17.83;;;16.23;;
7583;SDS011;3833;41.764;26.204;2022-12-29T08:26:26;18.23;;;15.60;;
7583;SDS011;3833;41.764;26.204;2022-12-29T08:28:53;17.30;;;15.43;;
7583;SDS011;3833;41.764;26.204;2022-12-29T08:31:21;28.33;;;25.33;;
7583;SDS011;3833;41.764;26.204;2022-12-29T08:33:48;25.37;;;22.83;;
7583;SDS011;3833;41.764;26.204;2022-12-29T08:36:15;29.10;;;25.33;;
7583;SDS011;3833;41.764;26.204;2022-12-29T08:38:41;31.20;;;26.43;;
7583;SDS011;3833;41.764;26.204;2022-12-29T08:41:08;21.57;;;17.17;;
7583;SDS011;3833;41.764;26.204;2022-12-29T08:43:36;21.13;;;17.37;;
7583;SDS011;3833;41.764;26.204;2022-12-29T08:46:03;17.97;;;15.77;;
7583;SDS011;3833;41.764;26.204;2022-12-29T08:48:30;18.47;;;16.40;;
7583;SDS011;3833;41.764;26.204;2022-12-29T08:50:57;17.20;;;15.43;;
7583;SDS011;3833;41.764;26.204;2022-12-29T08:53:24;23.80;;;21.17;;
7583;SDS011;3833;41.764;26.204;2022-12-29T08:55:54;25.73;;;23.27;;
7583;SDS011;3833;41.764;26.204;2022-12-29T08:58:22;22.33;;;20.03;;
7583;SDS011;3833;41.764;26.204;2022-12-29T09:00:52;22.33;;;20.07;;
7583;SDS011;3833;41.764;26.204;2022-12-29T09:03:20;29.33;;;26.47;;
7583;SDS011;3833;41.764;26.204;2022-12-29T09:05:47;17.13;;;13.33;;
7583;SDS011;3833;41.764;26.204;2022-12-29T09:08:15;22.73;;;19.93;;
7583;SDS011;3833;41.764;26.204;2022-12-29T09:10:42;20.03;;;15.60;;
7583;SDS011;3833;41.764;26.204;2022-12-29T09:13:09;27.40;;;18.47;;
7583;SDS011;3833;41.764;26.204;2022-12-29T09:15:37;19.17;;;17.13;;
7583;SDS011;3833;41.764;26.204;2022-12-29T09:18:05;17.40;;;13.27;;
7583;SDS011;3833;41.764;26.204;2022-12-29T09:20:32;21.83;;;19.33;;
7583;SDS011;3833;41.764;26.204;2022-12-29T09:23:00;18.93;;;17.57;;
7583;SDS011;3833;41.764;26.204;2022-12-29T09:25:27;29.80;;;24.83;;
7583;SDS011;3833;41.764;26.204;2022-12-29T09:27:54;21.30;;;19.37;;
7583;SDS011;3833;41.764;26.204;2022-12-29T09:30:21;19.03;;;17.30;;
7583;SDS011;3833;41.764;26.204;2022-12-29T09:32:49;60.90;;;43.27;;
7583;SDS011;3833;41.764;26.204;2022-12-29T09:35:17;25.30;;;18.57;;
7583;SDS011;3833;41.764;26.204;2022-12-29T09:37:44;27.00;;;22.87;;
7583;SDS011;3833;41.764;26.204;2022-12-29T09:40:17;17.77;;;16.00;;
7583;SDS011;3833;41.764;26.204;2022-12-29T09:42:55;16.47;;;14.77;;
7583;SDS011;3833;41.764;26.204;2022-12-29T09:45:50;16.40;;;14.27;;
7583;SDS011;3833;41.764;26.204;2022-12-29T09:48:23;18.90;;;16.97;;
7583;SDS011;3833;41.764;26.204;2022-12-29T09:50:56;16.17;;;14.77;;
7583;SDS011;3833;41.764;26.204;2022-12-29T09:53:27;23.40;;;21.33;;
7583;SDS011;3833;41.764;26.204;2022-12-29T09:55:58;21.63;;;19.63;;
7583;SDS011;3833;41.764;26.204;2022-12-29T09:58:28;14.43;;;13.03;;
7583;SDS011;3833;41.764;26.204;2022-12-29T10:01:01;20.10;;;16.50;;
7583;SDS011;3833;41.764;26.204;2022-12-29T10:03:33;18.83;;;15.30;;
7583;SDS011;3833;41.764;26.204;2022-12-29T10:06:10;27.70;;;22.87;;
7583;SDS011;3833;41.764;26.204;2022-12-29T10:08:41;12.97;;;9.90;;
7583;SDS011;3833;41.764;26.204;2022-12-29T10:11:16;18.27;;;15.73;;
7583;SDS011;3833;41.764;26.204;2022-12-29T10:14:04;20.17;;;17.23;;
7583;SDS011;3833;41.764;26.204;2022-12-29T10:16:46;21.60;;;19.63;;
7583;SDS011;3833;41.764;26.204;2022-12-29T10:19:24;26.17;;;23.77;;
7583;SDS011;3833;41.764;26.204;2022-12-29T10:22:03;27.43;;;24.83;;
7583;SDS011;3833;41.764;26.204;2022-12-29T10:24:39;24.47;;;22.17;;
7583;SDS011;3833;41.764;26.204;2022-12-29T10:27:09;14.20;;;12.47;;
7583;SDS011;3833;41.764;26.204;2022-12-29T10:29:39;14.50;;;12.93;;
7583;SDS011;3833;41.764;26.204;2022-12-29T10:32:13;16.20;;;14.50;;
7583;SDS011;3833;41.764;26.204;2022-12-29T10:34:51;17.13;;;15.37;;
7583;SDS011;3833;41.764;26.204;2022-12-29T10:37:24;11.50;;;9.30;;
7583;SDS011;3833;41.764;26.204;2022-12-29T10:39:59;26.43;;;22.20;;
7583;SDS011;3833;41.764;26.204;2022-12-29T10:42:28;20.67;;;18.60;;
7583;SDS011;3833;41.764;26.204;2022-12-29T10:45:02;18.43;;;15.50;;
7583;SDS011;3833;41.764;26.204;2022-12-29T10:47:33;32.43;;;25.17;;
7583;SDS011;3833;41.764;26.204;2022-12-29T10:50:04;15.63;;;13.93;;
7583;SDS011;3833;41.764;26.204;2022-12-29T10:52:34;19.53;;;15.37;;
7583;SDS011;3833;41.764;26.204;2022-12-29T10:55:04;12.77;;;10.80;;
7583;SDS011;3833;41.764;26.204;2022-12-29T10:57:39;17.43;;;15.57;;
7583;SDS011;3833;41.764;26.204;2022-12-29T11:00:11;18.60;;;16.73;;
7583;SDS011;3833;41.764;26.204;2022-12-29T11:02:47;13.43;;;12.03;;
7583;SDS011;3833;41.764;26.204;2022-12-29T11:05:44;26.00;;;23.43;;
7583;SDS011;3833;41.764;26.204;2022-12-29T11:08:17;21.03;;;19.07;;
7583;SDS011;3833;41.764;26.204;2022-12-29T11:10:47;19.47;;;17.60;;
7583;SDS011;3833;41.764;26.204;2022-12-29T11:13:25;17.23;;;15.50;;
7583;SDS011;3833;41.764;26.204;2022-12-29T11:15:53;16.13;;;14.30;;
7583;SDS011;3833;41.764;26.204;2022-12-29T11:18:21;13.63;;;11.93;;
7583;SDS011;3833;41.764;26.204;2022-12-29T11:20:50;19.30;;;17.30;;
7583;SDS011;3833;41.764;26.204;2022-12-29T11:23:24;17.20;;;15.43;;
7583;SDS011;3833;41.764;26.204;2022-12-29T11:26:08;13.17;;;11.77;;
7583;SDS011;3833;41.764;26.204;2022-12-29T11:28:44;15.53;;;13.37;;
7583;SDS011;3833;41.764;26.204;2022-12-29T11:31:15;17.43;;;15.13;;
7583;SDS011;3833;41.764;26.204;2022-12-29T11:33:43;16.57;;;13.10;;
7583;SDS011;3833;41.764;26.204;2022-12-29T11:36:11;14.00;;;12.53;;
7583;SDS011;3833;41.764;26.204;2022-12-29T11:38:45;14.20;;;12.77;;
7583;SDS011;3833;41.764;26.204;2022-12-29T11:41:18;22.23;;;20.03;;
7583;SDS011;3833;41.764;26.204;2022-12-29T11:43:48;22.80;;;17.63;;
7583;SDS011;3833;41.764;26.204;2022-12-29T11:46:18;14.70;;;13.20;;
7583;SDS011;3833;41.764;26.204;2022-12-29T11:48:47;13.77;;;11.80;;
7583;SDS011;3833;41.764;26.204;2022-12-29T11:51:20;16.70;;;15.00;;
7583;SDS011;3833;41.764;26.204;2022-12-29T11:53:51;12.03;;;10.30;;
7583;SDS011;3833;41.764;26.204;2022-12-29T11:56:30;17.00;;;15.23;;
7583;SDS011;3833;41.764;26.204;2022-12-29T12:02:26;14.73;;;13.20;;
7583;SDS011;3833;41.764;26.204;2022-12-29T12:05:09;17.40;;;14.47;;
7583;SDS011;3833;41.764;26.204;2022-12-29T12:07:43;21.13;;;17.57;;
7583;SDS011;3833;41.764;26.204;2022-12-29T12:10:21;13.27;;;11.63;;
7583;SDS011;3833;41.764;26.204;2022-12-29T12:13:06;12.63;;;11.30;;
7583;SDS011;3833;41.764;26.204;2022-12-29T12:15:42;16.97;;;13.63;;
7583;SDS011;3833;41.764;26.204;2022-12-29T12:18:15;22.83;;;20.43;;
7583;SDS011;3833;41.764;26.204;2022-12-29T12:20:46;23.77;;;21.37;;
7583;SDS011;3833;41.764;26.204;2022-12-29T12:23:18;18.80;;;14.50;;
7583;SDS011;3833;41.764;26.204;2022-12-29T12:25:59;17.63;;;15.50;;
7583;SDS011;3833;41.764;26.204;2022-12-29T12:28:37;17.97;;;15.63;;
7583;SDS011;3833;41.764;26.204;2022-12-29T12:31:16;21.77;;;17.93;;
7583;SDS011;3833;41.764;26.204;2022-12-29T12:33:47;23.57;;;20.57;;
7583;SDS011;3833;41.764;26.204;2022-12-29T12:36:26;24.43;;;19.87;;
7583;SDS011;3833;41.764;26.204;2022-12-29T12:39:11;23.00;;;18.97;;
7583;SDS011;3833;41.764;26.204;2022-12-29T12:41:48;23.27;;;20.87;;
7583;SDS011;3833;41.764;26.204;2022-12-29T12:44:26;22.00;;;18.57;;
7583;SDS011;3833;41.764;26.204;2022-12-29T12:47:07;23.10;;;19.23;;
7583;SDS011;3833;41.764;26.204;2022-12-29T12:52:44;26.53;;;19.63;;
7583;SDS011;3833;41.764;26.204;2022-12-29T12:55:36;23.40;;;20.97;;
7583;SDS011;3833;41.764;26.204;2022-12-29T12:58:17;19.83;;;17.73;;
7583;SDS011;3833;41.764;26.204;2022-12-29T13:00:58;20.57;;;18.40;;
7583;SDS011;3833;41.764;26.204;2022-12-29T13:03:41;20.80;;;18.60;;
7583;SDS011;3833;41.764;26.204;2022-12-29T13:06:16;16.80;;;15.07;;
7583;SDS011;3833;41.764;26.204;2022-12-29T13:12:02;18.67;;;16.40;;
7583;SDS011;3833;41.764;26.204;2022-12-29T13:14:40;19.10;;;16.73;;
7583;SDS011;3833;41.764;26.204;2022-12-29T13:17:18;20.40;;;17.93;;
7583;SDS011;3833;41.764;26.204;2022-12-29T13:19:53;15.03;;;13.43;;
7583;SDS011;3833;41.764;26.204;2022-12-29T13:22:25;19.80;;;17.67;;
7583;SDS011;3833;41.764;26.204;2022-12-29T13:25:04;24.57;;;21.97;;
7583;SDS011;3833;41.764;26.204;2022-12-29T13:27:46;23.17;;;20.73;;
7583;SDS011;3833;41.764;26.204;2022-12-29T13:30:21;20.03;;;18.00;;
7583;SDS011;3833;41.764;26.204;2022-12-29T13:32:53;16.53;;;14.43;;
7583;SDS011;3833;41.764;26.204;2022-12-29T13:35:30;49.43;;;37.23;;
7583;SDS011;3833;41.764;26.204;2022-12-29T13:38:09;23.57;;;20.00;;
7583;SDS011;3833;41.764;26.204;2022-12-29T13:40:40;18.90;;;16.87;;
7583;SDS011;3833;41.764;26.204;2022-12-29T13:43:10;22.03;;;19.23;;
7583;SDS011;3833;41.764;26.204;2022-12-29T13:45:40;20.53;;;17.80;;
7583;SDS011;3833;41.764;26.204;2022-12-29T13:48:09;24.37;;;21.40;;
7583;SDS011;3833;41.764;26.204;2022-12-29T13:50:43;17.07;;;15.23;;
7583;SDS011;3833;41.764;26.204;2022-12-29T13:53:15;15.77;;;14.17;;
7583;SDS011;3833;41.764;26.204;2022-12-29T13:55:51;18.23;;;15.83;;
7583;SDS011;3833;41.764;26.204;2022-12-29T13:58:24;19.00;;;17.10;;
7583;SDS011;3833;41.764;26.204;2022-12-29T14:01:00;20.53;;;17.97;;
7583;SDS011;3833;41.764;26.204;2022-12-29T14:06:19;18.00;;;16.40;;
7583;SDS011;3833;41.764;26.204;2022-12-29T14:08:51;18.10;;;16.43;;
7583;SDS011;3833;41.764;26.204;2022-12-29T14:11:21;18.80;;;17.10;;
7583;SDS011;3833;41.764;26.204;2022-12-29T14:13:52;12.60;;;11.47;;
7583;SDS011;3833;41.764;26.204;2022-12-29T14:16:28;13.47;;;12.23;;
7583;SDS011;3833;41.764;26.204;2022-12-29T14:19:03;11.77;;;10.73;;
7583;SDS011;3833;41.764;26.204;2022-12-29T14:21:36;12.97;;;11.70;;
7583;SDS011;3833;41.764;26.204;2022-12-29T14:33:15;19.33;;;17.47;;
7583;SDS011;3833;41.764;26.204;2022-12-29T14:35:44;10.87;;;9.83;;
7583;SDS011;3833;41.764;26.204;2022-12-29T14:38:24;14.50;;;11.47;;
7583;SDS011;3833;41.764;26.204;2022-12-29T14:43:58;10.73;;;9.73;;
7583;SDS011;3833;41.764;26.204;2022-12-29T14:46:48;13.00;;;11.80;;
7583;SDS011;3833;41.764;26.204;2022-12-29T14:49:24;10.33;;;9.40;;
7583;SDS011;3833;41.764;26.204;2022-12-29T14:51:54;13.27;;;12.07;;
7583;SDS011;3833;41.764;26.204;2022-12-29T14:57:27;12.63;;;11.33;;
7583;SDS011;3833;41.764;26.204;2022-12-29T14:59:58;9.73;;;8.83;;
7583;SDS011;3833;41.764;26.204;2022-12-29T15:02:32;11.80;;;10.70;;
7583;SDS011;3833;41.764;26.204;2022-12-29T15:05:05;11.47;;;10.27;;
7583;SDS011;3833;41.764;26.204;2022-12-29T15:07:46;10.03;;;9.10;;
7583;SDS011;3833;41.764;26.204;2022-12-29T15:10:13;12.60;;;11.57;;
7583;SDS011;3833;41.764;26.204;2022-12-29T15:12:45;12.73;;;11.47;;
7583;SDS011;3833;41.764;26.204;2022-12-29T15:15:19;7.10;;;6.50;;
7583;SDS011;3833;41.764;26.204;2022-12-29T15:17:48;11.30;;;9.80;;
7583;SDS011;3833;41.764;26.204;2022-12-29T15:20:21;10.73;;;9.73;;
7583;SDS011;3833;41.764;26.204;2022-12-29T15:22:52;10.20;;;9.33;;
7583;SDS011;3833;41.764;26.204;2022-12-29T15:25:22;9.63;;;8.80;;
7583;SDS011;3833;41.764;26.204;2022-12-29T15:27:50;14.23;;;12.93;;
7583;SDS011;3833;41.764;26.204;2022-12-29T15:30:19;7.03;;;6.33;;
7583;SDS011;3833;41.764;26.204;2022-12-29T15:32:47;9.20;;;8.50;;
7583;SDS011;3833;41.764;26.204;2022-12-29T15:35:24;9.97;;;9.10;;
7583;SDS011;3833;41.764;26.204;2022-12-29T15:37:56;11.07;;;10.10;;
7583;SDS011;3833;41.764;26.204;2022-12-29T15:40:25;8.90;;;7.67;;
7583;SDS011;3833;41.764;26.204;2022-12-29T15:43:04;14.53;;;13.13;;